sensor_id;sensor_type;location;lat;lon;timestamp;P1;durP1;ratioP1;P2;durP2;ratioP2
51286;SDS011;37364;46.974;18.916;2022-08-19T00:00:56;16.40;;;6.57;;
51286;SDS011;37364;46.974;18.916;2022-08-19T00:03:29;21.30;;;6.57;;
51286;SDS011;37364;46.974;18.916;2022-08-19T00:06:01;25.35;;;6.50;;
51286;SDS011;37364;46.974;18.916;2022-08-19T00:08:31;13.15;;;5.78;;
51286;SDS011;37364;46.974;18.916;2022-08-19T00:11:13;23.08;;;6.28;;
51286;SDS011;37364;46.974;18.916;2022-08-19T00:13:52;32.75;;;7.13;;
51286;SDS011;37364;46.974;18.916;2022-08-19T00:16:23;21.85;;;6.50;;
51286;SDS011;37364;46.974;18.916;2022-08-19T00:18:55;24.25;;;7.18;;
51286;SDS011;37364;46.974;18.916;2022-08-19T00:21:26;11.70;;;5.97;;
51286;SDS011;37364;46.974;18.916;2022-08-19T00:23:58;16.10;;;6.80;;
51286;SDS011;37364;46.974;18.916;2022-08-19T00:26:33;13.90;;;6.30;;
51286;SDS011;37364;46.974;18.916;2022-08-19T00:29:07;22.67;;;6.63;;
51286;SDS011;37364;46.974;18.916;2022-08-19T00:31:40;13.48;;;6.72;;
51286;SDS011;37364;46.974;18.916;2022-08-19T00:34:11;19.15;;;6.75;;
51286;SDS011;37364;46.974;18.916;2022-08-19T00:36:42;24.98;;;6.63;;
51286;SDS011;37364;46.974;18.916;2022-08-19T00:39:13;14.25;;;7.25;;
51286;SDS011;37364;46.974;18.916;2022-08-19T00:41:49;13.60;;;6.68;;
51286;SDS011;37364;46.974;18.916;2022-08-19T00:44:22;11.15;;;6.68;;
51286;SDS011;37364;46.974;18.916;2022-08-19T00:46:57;12.02;;;6.57;;
51286;SDS011;37364;46.974;18.916;2022-08-19T00:49:29;31.42;;;6.97;;
51286;SDS011;37364;46.974;18.916;2022-08-19T00:52:07;15.27;;;6.90;;
51286;SDS011;37364;46.974;18.916;2022-08-19T00:54:41;19.30;;;7.10;;
51286;SDS011;37364;46.974;18.916;2022-08-19T00:57:24;25.98;;;7.00;;
51286;SDS011;37364;46.974;18.916;2022-08-19T01:00:00;21.25;;;6.88;;
51286;SDS011;37364;46.974;18.916;2022-08-19T01:02:31;12.88;;;6.82;;
51286;SDS011;37364;46.974;18.916;2022-08-19T01:05:06;19.52;;;6.75;;
51286;SDS011;37364;46.974;18.916;2022-08-19T01:07:42;20.88;;;7.28;;
51286;SDS011;37364;46.974;18.916;2022-08-19T01:10:16;16.13;;;6.93;;
51286;SDS011;37364;46.974;18.916;2022-08-19T01:12:52;16.20;;;6.88;;
51286;SDS011;37364;46.974;18.916;2022-08-19T01:15:29;11.82;;;6.78;;
51286;SDS011;37364;46.974;18.916;2022-08-19T01:18:06;17.05;;;7.00;;
51286;SDS011;37364;46.974;18.916;2022-08-19T01:20:39;24.50;;;6.97;;
51286;SDS011;37364;46.974;18.916;2022-08-19T01:23:14;18.98;;;7.70;;
51286;SDS011;37364;46.974;18.916;2022-08-19T01:25:46;20.80;;;7.60;;
51286;SDS011;37364;46.974;18.916;2022-08-19T01:28:20;26.58;;;8.32;;
51286;SDS011;37364;46.974;18.916;2022-08-19T01:31:09;14.88;;;7.57;;
51286;SDS011;37364;46.974;18.916;2022-08-19T01:33:54;17.77;;;7.68;;
51286;SDS011;37364;46.974;18.916;2022-08-19T01:36:27;10.68;;;7.15;;
51286;SDS011;37364;46.974;18.916;2022-08-19T01:39:10;12.02;;;6.55;;
51286;SDS011;37364;46.974;18.916;2022-08-19T01:41:42;13.32;;;7.40;;
51286;SDS011;37364;46.974;18.916;2022-08-19T01:44:14;18.75;;;7.75;;
51286;SDS011;37364;46.974;18.916;2022-08-19T01:46:47;22.45;;;8.63;;
51286;SDS011;37364;46.974;18.916;2022-08-19T01:49:19;17.67;;;7.18;;
51286;SDS011;37364;46.974;18.916;2022-08-19T01:51:54;18.20;;;8.23;;
51286;SDS011;37364;46.974;18.916;2022-08-19T01:54:29;23.48;;;8.35;;
51286;SDS011;37364;46.974;18.916;2022-08-19T01:57:01;24.35;;;8.00;;
51286;SDS011;37364;46.974;18.916;2022-08-19T01:59:35;26.52;;;8.43;;
51286;SDS011;37364;46.974;18.916;2022-08-19T02:02:16;27.75;;;8.23;;
51286;SDS011;37364;46.974;18.916;2022-08-19T02:04:47;15.70;;;8.25;;
51286;SDS011;37364;46.974;18.916;2022-08-19T02:07:18;22.30;;;8.93;;
51286;SDS011;37364;46.974;18.916;2022-08-19T02:12:32;15.00;;;8.20;;
51286;SDS011;37364;46.974;18.916;2022-08-19T02:15:14;13.82;;;8.45;;
51286;SDS011;37364;46.974;18.916;2022-08-19T02:17:47;28.80;;;9.30;;
51286;SDS011;37364;46.974;18.916;2022-08-19T02:20:18;13.57;;;8.13;;
51286;SDS011;37364;46.974;18.916;2022-08-19T02:22:52;18.90;;;8.00;;
51286;SDS011;37364;46.974;18.916;2022-08-19T02:25:25;21.65;;;8.52;;
51286;SDS011;37364;46.974;18.916;2022-08-19T02:30:28;14.85;;;8.27;;
51286;SDS011;37364;46.974;18.916;2022-08-19T02:32:58;15.32;;;7.75;;
51286;SDS011;37364;46.974;18.916;2022-08-19T02:35:29;16.80;;;8.88;;
51286;SDS011;37364;46.974;18.916;2022-08-19T02:37:59;14.85;;;8.48;;
51286;SDS011;37364;46.974;18.916;2022-08-19T02:40:50;21.33;;;8.98;;
51286;SDS011;37364;46.974;18.916;2022-08-19T02:43:24;12.53;;;8.90;;
51286;SDS011;37364;46.974;18.916;2022-08-19T02:46:00;23.45;;;9.85;;
51286;SDS011;37364;46.974;18.916;2022-08-19T02:48:32;24.23;;;9.85;;
51286;SDS011;37364;46.974;18.916;2022-08-19T02:51:15;15.07;;;8.82;;
51286;SDS011;37364;46.974;18.916;2022-08-19T02:53:50;22.10;;;10.32;;
51286;SDS011;37364;46.974;18.916;2022-08-19T02:56:23;34.50;;;10.43;;
51286;SDS011;37364;46.974;18.916;2022-08-19T03:01:26;27.20;;;10.35;;
51286;SDS011;37364;46.974;18.916;2022-08-19T03:03:59;28.30;;;9.83;;
51286;SDS011;37364;46.974;18.916;2022-08-19T03:06:35;31.30;;;10.27;;
51286;SDS011;37364;46.974;18.916;2022-08-19T03:09:08;22.08;;;10.43;;
51286;SDS011;37364;46.974;18.916;2022-08-19T03:11:41;12.00;;;9.50;;
51286;SDS011;37364;46.974;18.916;2022-08-19T03:14:14;39.13;;;9.73;;
51286;SDS011;37364;46.974;18.916;2022-08-19T03:16:46;16.30;;;10.80;;
51286;SDS011;37364;46.974;18.916;2022-08-19T03:19:18;23.92;;;10.15;;
51286;SDS011;37364;46.974;18.916;2022-08-19T03:21:50;16.15;;;9.43;;
51286;SDS011;37364;46.974;18.916;2022-08-19T03:24:24;17.27;;;9.95;;
51286;SDS011;37364;46.974;18.916;2022-08-19T03:26:58;25.20;;;10.07;;
51286;SDS011;37364;46.974;18.916;2022-08-19T03:29:30;19.15;;;10.52;;
51286;SDS011;37364;46.974;18.916;2022-08-19T03:32:10;24.23;;;10.82;;
51286;SDS011;37364;46.974;18.916;2022-08-19T03:34:58;19.73;;;10.63;;
51286;SDS011;37364;46.974;18.916;2022-08-19T03:37:29;40.60;;;12.73;;
51286;SDS011;37364;46.974;18.916;2022-08-19T03:40:08;31.80;;;9.98;;
51286;SDS011;37364;46.974;18.916;2022-08-19T03:42:45;18.52;;;10.85;;
51286;SDS011;37364;46.974;18.916;2022-08-19T03:45:17;15.70;;;9.32;;
51286;SDS011;37364;46.974;18.916;2022-08-19T03:47:49;31.17;;;10.07;;
51286;SDS011;37364;46.974;18.916;2022-08-19T03:50:20;19.92;;;10.73;;
51286;SDS011;37364;46.974;18.916;2022-08-19T03:52:53;16.45;;;10.60;;
51286;SDS011;37364;46.974;18.916;2022-08-19T03:58:01;23.60;;;10.65;;
51286;SDS011;37364;46.974;18.916;2022-08-19T04:00:33;20.10;;;10.20;;
51286;SDS011;37364;46.974;18.916;2022-08-19T04:03:04;32.30;;;10.75;;
51286;SDS011;37364;46.974;18.916;2022-08-19T04:05:35;17.45;;;10.68;;
51286;SDS011;37364;46.974;18.916;2022-08-19T04:08:06;28.05;;;11.07;;
51286;SDS011;37364;46.974;18.916;2022-08-19T04:10:40;18.42;;;11.52;;
51286;SDS011;37364;46.974;18.916;2022-08-19T04:13:13;26.00;;;10.93;;
51286;SDS011;37364;46.974;18.916;2022-08-19T04:15:47;24.15;;;10.48;;
51286;SDS011;37364;46.974;18.916;2022-08-19T04:18:18;23.35;;;11.05;;
51286;SDS011;37364;46.974;18.916;2022-08-19T04:20:49;25.05;;;12.23;;
51286;SDS011;37364;46.974;18.916;2022-08-19T04:23:20;17.45;;;11.38;;
51286;SDS011;37364;46.974;18.916;2022-08-19T04:25:52;22.33;;;10.80;;
51286;SDS011;37364;46.974;18.916;2022-08-19T04:28:28;22.40;;;12.15;;
51286;SDS011;37364;46.974;18.916;2022-08-19T04:31:03;17.88;;;10.40;;
51286;SDS011;37364;46.974;18.916;2022-08-19T04:33:35;21.65;;;10.70;;
51286;SDS011;37364;46.974;18.916;2022-08-19T04:36:06;15.90;;;11.65;;
51286;SDS011;37364;46.974;18.916;2022-08-19T04:38:37;19.33;;;11.30;;
51286;SDS011;37364;46.974;18.916;2022-08-19T04:41:07;19.40;;;11.32;;
51286;SDS011;37364;46.974;18.916;2022-08-19T04:43:52;21.52;;;11.32;;
51286;SDS011;37364;46.974;18.916;2022-08-19T04:46:31;21.63;;;11.55;;
51286;SDS011;37364;46.974;18.916;2022-08-19T04:49:17;20.48;;;11.85;;
51286;SDS011;37364;46.974;18.916;2022-08-19T04:51:51;21.57;;;11.80;;
51286;SDS011;37364;46.974;18.916;2022-08-19T04:54:26;24.45;;;11.60;;
51286;SDS011;37364;46.974;18.916;2022-08-19T04:57:06;17.55;;;11.05;;
51286;SDS011;37364;46.974;18.916;2022-08-19T04:59:48;18.63;;;11.93;;
51286;SDS011;37364;46.974;18.916;2022-08-19T05:02:18;21.13;;;11.32;;
51286;SDS011;37364;46.974;18.916;2022-08-19T05:04:55;25.95;;;11.70;;
51286;SDS011;37364;46.974;18.916;2022-08-19T05:07:29;23.17;;;10.43;;
51286;SDS011;37364;46.974;18.916;2022-08-19T05:09:59;21.42;;;10.88;;
51286;SDS011;37364;46.974;18.916;2022-08-19T05:12:32;36.50;;;12.23;;
51286;SDS011;37364;46.974;18.916;2022-08-19T05:15:08;17.30;;;11.02;;
51286;SDS011;37364;46.974;18.916;2022-08-19T05:17:40;26.90;;;12.05;;
51286;SDS011;37364;46.974;18.916;2022-08-19T05:20:32;21.70;;;11.20;;
51286;SDS011;37364;46.974;18.916;2022-08-19T05:23:16;24.23;;;12.00;;
51286;SDS011;37364;46.974;18.916;2022-08-19T05:25:49;26.02;;;13.15;;
51286;SDS011;37364;46.974;18.916;2022-08-19T05:28:20;24.58;;;12.45;;
51286;SDS011;37364;46.974;18.916;2022-08-19T05:30:56;21.45;;;11.00;;
51286;SDS011;37364;46.974;18.916;2022-08-19T05:33:30;26.63;;;13.02;;
51286;SDS011;37364;46.974;18.916;2022-08-19T05:36:01;33.03;;;12.05;;
51286;SDS011;37364;46.974;18.916;2022-08-19T05:38:35;29.52;;;12.02;;
51286;SDS011;37364;46.974;18.916;2022-08-19T05:43:38;26.90;;;12.20;;
51286;SDS011;37364;46.974;18.916;2022-08-19T05:46:13;33.97;;;13.25;;
51286;SDS011;37364;46.974;18.916;2022-08-19T05:48:54;31.67;;;13.48;;
51286;SDS011;37364;46.974;18.916;2022-08-19T05:51:33;29.95;;;13.50;;
51286;SDS011;37364;46.974;18.916;2022-08-19T05:54:04;54.15;;;12.70;;
51286;SDS011;37364;46.974;18.916;2022-08-19T05:56:35;36.40;;;12.85;;
51286;SDS011;37364;46.974;18.916;2022-08-19T05:59:06;63.65;;;13.88;;
51286;SDS011;37364;46.974;18.916;2022-08-19T06:01:43;33.67;;;12.82;;
51286;SDS011;37364;46.974;18.916;2022-08-19T06:04:19;21.15;;;11.65;;
51286;SDS011;37364;46.974;18.916;2022-08-19T06:06:54;36.15;;;12.82;;
51286;SDS011;37364;46.974;18.916;2022-08-19T06:09:37;32.60;;;12.82;;
51286;SDS011;37364;46.974;18.916;2022-08-19T06:12:20;40.75;;;12.00;;
51286;SDS011;37364;46.974;18.916;2022-08-19T06:14:57;27.02;;;10.10;;
51286;SDS011;37364;46.974;18.916;2022-08-19T06:17:30;41.63;;;11.25;;
51286;SDS011;37364;46.974;18.916;2022-08-19T06:20:02;24.95;;;11.63;;
51286;SDS011;37364;46.974;18.916;2022-08-19T06:22:36;43.85;;;12.07;;
51286;SDS011;37364;46.974;18.916;2022-08-19T06:25:08;32.10;;;10.65;;
51286;SDS011;37364;46.974;18.916;2022-08-19T06:27:40;32.15;;;10.15;;
51286;SDS011;37364;46.974;18.916;2022-08-19T06:30:30;16.17;;;9.50;;
51286;SDS011;37364;46.974;18.916;2022-08-19T06:33:05;17.58;;;9.27;;
51286;SDS011;37364;46.974;18.916;2022-08-19T06:35:38;19.40;;;9.07;;
51286;SDS011;37364;46.974;18.916;2022-08-19T06:38:31;32.63;;;9.68;;
51286;SDS011;37364;46.974;18.916;2022-08-19T06:41:02;21.60;;;9.00;;
51286;SDS011;37364;46.974;18.916;2022-08-19T06:43:34;31.80;;;14.85;;
51286;SDS011;37364;46.974;18.916;2022-08-19T06:48:45;33.20;;;9.95;;
51286;SDS011;37364;46.974;18.916;2022-08-19T06:51:17;29.98;;;9.40;;
51286;SDS011;37364;46.974;18.916;2022-08-19T06:53:48;18.85;;;8.63;;
51286;SDS011;37364;46.974;18.916;2022-08-19T06:56:23;36.30;;;8.57;;
51286;SDS011;37364;46.974;18.916;2022-08-19T06:58:58;21.92;;;8.82;;
51286;SDS011;37364;46.974;18.916;2022-08-19T07:01:33;30.95;;;8.85;;
51286;SDS011;37364;46.974;18.916;2022-08-19T07:04:12;36.28;;;8.80;;
51286;SDS011;37364;46.974;18.916;2022-08-19T07:06:56;25.70;;;7.68;;
51286;SDS011;37364;46.974;18.916;2022-08-19T07:12:27;33.90;;;8.07;;
51286;SDS011;37364;46.974;18.916;2022-08-19T07:15:04;46.80;;;8.13;;
51286;SDS011;37364;46.974;18.916;2022-08-19T07:17:38;31.80;;;8.07;;
51286;SDS011;37364;46.974;18.916;2022-08-19T07:20:16;36.13;;;8.55;;
51286;SDS011;37364;46.974;18.916;2022-08-19T07:22:47;16.77;;;7.43;;
51286;SDS011;37364;46.974;18.916;2022-08-19T07:25:19;44.40;;;8.27;;
51286;SDS011;37364;46.974;18.916;2022-08-19T07:28:00;35.03;;;8.52;;
51286;SDS011;37364;46.974;18.916;2022-08-19T07:30:32;22.15;;;7.80;;
51286;SDS011;37364;46.974;18.916;2022-08-19T07:33:04;32.67;;;7.03;;
51286;SDS011;37364;46.974;18.916;2022-08-19T07:35:38;29.45;;;7.30;;
51286;SDS011;37364;46.974;18.916;2022-08-19T07:38:10;42.20;;;7.57;;
51286;SDS011;37364;46.974;18.916;2022-08-19T07:40:41;16.30;;;6.57;;
51286;SDS011;37364;46.974;18.916;2022-08-19T07:43:13;26.08;;;8.32;;
51286;SDS011;37364;46.974;18.916;2022-08-19T07:45:46;39.35;;;6.80;;
51286;SDS011;37364;46.974;18.916;2022-08-19T07:48:18;34.15;;;7.47;;
51286;SDS011;37364;46.974;18.916;2022-08-19T07:50:56;24.48;;;7.03;;
51286;SDS011;37364;46.974;18.916;2022-08-19T07:53:29;33.30;;;7.18;;
51286;SDS011;37364;46.974;18.916;2022-08-19T07:56:05;25.00;;;7.53;;
51286;SDS011;37364;46.974;18.916;2022-08-19T07:58:39;34.13;;;7.05;;
51286;SDS011;37364;46.974;18.916;2022-08-19T08:01:13;29.05;;;7.28;;
51286;SDS011;37364;46.974;18.916;2022-08-19T08:03:47;39.35;;;7.57;;
51286;SDS011;37364;46.974;18.916;2022-08-19T08:06:36;28.05;;;6.40;;
51286;SDS011;37364;46.974;18.916;2022-08-19T08:09:20;19.00;;;6.25;;
51286;SDS011;37364;46.974;18.916;2022-08-19T08:11:53;29.67;;;6.43;;
51286;SDS011;37364;46.974;18.916;2022-08-19T08:14:36;35.50;;;7.22;;
51286;SDS011;37364;46.974;18.916;2022-08-19T08:17:10;27.88;;;6.85;;
51286;SDS011;37364;46.974;18.916;2022-08-19T08:19:58;29.25;;;6.95;;
51286;SDS011;37364;46.974;18.916;2022-08-19T08:22:33;38.38;;;6.38;;
51286;SDS011;37364;46.974;18.916;2022-08-19T08:25:21;31.48;;;5.72;;
51286;SDS011;37364;46.974;18.916;2022-08-19T08:27:58;19.92;;;6.93;;
51286;SDS011;37364;46.974;18.916;2022-08-19T08:30:29;37.13;;;6.97;;
51286;SDS011;37364;46.974;18.916;2022-08-19T08:33:02;31.52;;;6.78;;
51286;SDS011;37364;46.974;18.916;2022-08-19T08:35:34;24.08;;;6.55;;
51286;SDS011;37364;46.974;18.916;2022-08-19T08:38:09;31.42;;;5.90;;
51286;SDS011;37364;46.974;18.916;2022-08-19T08:40:43;32.75;;;6.95;;
51286;SDS011;37364;46.974;18.916;2022-08-19T08:43:20;29.20;;;6.22;;
51286;SDS011;37364;46.974;18.916;2022-08-19T08:46:00;20.67;;;6.07;;
51286;SDS011;37364;46.974;18.916;2022-08-19T08:48:39;22.23;;;5.10;;
51286;SDS011;37364;46.974;18.916;2022-08-19T08:51:20;18.38;;;5.30;;
51286;SDS011;37364;46.974;18.916;2022-08-19T08:54:05;16.80;;;5.88;;
51286;SDS011;37364;46.974;18.916;2022-08-19T08:56:37;33.38;;;6.20;;
51286;SDS011;37364;46.974;18.916;2022-08-19T08:59:10;23.38;;;4.93;;
51286;SDS011;37364;46.974;18.916;2022-08-19T09:01:48;28.40;;;6.03;;
51286;SDS011;37364;46.974;18.916;2022-08-19T09:04:19;35.17;;;6.07;;
51286;SDS011;37364;46.974;18.916;2022-08-19T09:06:51;25.13;;;6.55;;
51286;SDS011;37364;46.974;18.916;2022-08-19T09:09:57;29.08;;;5.60;;
51286;SDS011;37364;46.974;18.916;2022-08-19T09:12:38;20.13;;;5.45;;
51286;SDS011;37364;46.974;18.916;2022-08-19T09:15:18;21.52;;;5.18;;
51286;SDS011;37364;46.974;18.916;2022-08-19T09:18:03;24.30;;;5.80;;
51286;SDS011;37364;46.974;18.916;2022-08-19T09:20:44;24.83;;;6.18;;
51286;SDS011;37364;46.974;18.916;2022-08-19T09:23:16;21.15;;;5.28;;
51286;SDS011;37364;46.974;18.916;2022-08-19T09:25:56;26.52;;;5.05;;
51286;SDS011;37364;46.974;18.916;2022-08-19T09:28:26;12.20;;;4.97;;
51286;SDS011;37364;46.974;18.916;2022-08-19T09:33:29;18.88;;;4.90;;
51286;SDS011;37364;46.974;18.916;2022-08-19T09:36:05;21.85;;;5.13;;
51286;SDS011;37364;46.974;18.916;2022-08-19T09:39:02;19.50;;;5.90;;
51286;SDS011;37364;46.974;18.916;2022-08-19T09:41:45;23.38;;;5.15;;
51286;SDS011;37364;46.974;18.916;2022-08-19T09:44:18;16.92;;;4.72;;
51286;SDS011;37364;46.974;18.916;2022-08-19T09:46:49;19.67;;;4.72;;
51286;SDS011;37364;46.974;18.916;2022-08-19T09:49:19;8.88;;;4.40;;
51286;SDS011;37364;46.974;18.916;2022-08-19T09:51:51;12.80;;;4.38;;
51286;SDS011;37364;46.974;18.916;2022-08-19T09:54:23;13.65;;;4.78;;
51286;SDS011;37364;46.974;18.916;2022-08-19T09:57:06;7.25;;;4.10;;
51286;SDS011;37364;46.974;18.916;2022-08-19T09:59:39;12.43;;;4.30;;
51286;SDS011;37364;46.974;18.916;2022-08-19T10:02:14;15.20;;;5.13;;
51286;SDS011;37364;46.974;18.916;2022-08-19T10:04:48;22.70;;;4.28;;
51286;SDS011;37364;46.974;18.916;2022-08-19T10:07:31;23.02;;;4.68;;
51286;SDS011;37364;46.974;18.916;2022-08-19T10:10:02;13.13;;;4.50;;
51286;SDS011;37364;46.974;18.916;2022-08-19T10:12:36;17.70;;;4.50;;
51286;SDS011;37364;46.974;18.916;2022-08-19T10:15:14;14.70;;;4.50;;
51286;SDS011;37364;46.974;18.916;2022-08-19T10:17:55;23.42;;;5.15;;
51286;SDS011;37364;46.974;18.916;2022-08-19T10:20:26;24.10;;;4.65;;
51286;SDS011;37364;46.974;18.916;2022-08-19T10:22:58;11.60;;;4.28;;
51286;SDS011;37364;46.974;18.916;2022-08-19T10:25:33;19.85;;;4.75;;
51286;SDS011;37364;46.974;18.916;2022-08-19T10:28:12;36.40;;;5.25;;
51286;SDS011;37364;46.974;18.916;2022-08-19T10:30:46;20.83;;;4.53;;
51286;SDS011;37364;46.974;18.916;2022-08-19T10:33:22;19.02;;;4.40;;
51286;SDS011;37364;46.974;18.916;2022-08-19T10:36:15;21.40;;;5.17;;
51286;SDS011;37364;46.974;18.916;2022-08-19T10:38:50;27.00;;;4.25;;
51286;SDS011;37364;46.974;18.916;2022-08-19T10:41:25;18.10;;;5.20;;
51286;SDS011;37364;46.974;18.916;2022-08-19T10:44:01;16.00;;;4.68;;
51286;SDS011;37364;46.974;18.916;2022-08-19T10:49:15;20.60;;;5.05;;
51286;SDS011;37364;46.974;18.916;2022-08-19T10:51:49;13.07;;;4.00;;
51286;SDS011;37364;46.974;18.916;2022-08-19T10:54:37;21.05;;;4.35;;
51286;SDS011;37364;46.974;18.916;2022-08-19T10:57:21;16.30;;;4.22;;
51286;SDS011;37364;46.974;18.916;2022-08-19T11:00:20;15.30;;;3.92;;
51286;SDS011;37364;46.974;18.916;2022-08-19T11:02:53;27.30;;;5.32;;
51286;SDS011;37364;46.974;18.916;2022-08-19T11:05:24;23.92;;;4.28;;
51286;SDS011;37364;46.974;18.916;2022-08-19T11:08:04;21.02;;;5.00;;
51286;SDS011;37364;46.974;18.916;2022-08-19T11:10:49;14.95;;;4.72;;
51286;SDS011;37364;46.974;18.916;2022-08-19T11:13:27;20.98;;;4.07;;
51286;SDS011;37364;46.974;18.916;2022-08-19T11:16:03;15.85;;;4.63;;
51286;SDS011;37364;46.974;18.916;2022-08-19T11:18:36;25.65;;;3.72;;
51286;SDS011;37364;46.974;18.916;2022-08-19T11:21:13;19.27;;;4.85;;
51286;SDS011;37364;46.974;18.916;2022-08-19T11:23:47;23.92;;;4.03;;
51286;SDS011;37364;46.974;18.916;2022-08-19T11:26:22;16.52;;;3.83;;
51286;SDS011;37364;46.974;18.916;2022-08-19T11:28:53;12.43;;;3.90;;
51286;SDS011;37364;46.974;18.916;2022-08-19T11:31:29;17.95;;;4.22;;
51286;SDS011;37364;46.974;18.916;2022-08-19T11:34:03;36.22;;;4.97;;
51286;SDS011;37364;46.974;18.916;2022-08-19T11:36:36;22.40;;;5.03;;
51286;SDS011;37364;46.974;18.916;2022-08-19T11:39:10;28.90;;;5.88;;
51286;SDS011;37364;46.974;18.916;2022-08-19T11:41:43;21.45;;;5.05;;
51286;SDS011;37364;46.974;18.916;2022-08-19T11:44:13;29.67;;;6.50;;
51286;SDS011;37364;46.974;18.916;2022-08-19T11:46:47;30.13;;;6.47;;
51286;SDS011;37364;46.974;18.916;2022-08-19T11:49:22;36.90;;;5.38;;
51286;SDS011;37364;46.974;18.916;2022-08-19T11:51:54;31.02;;;4.50;;
51286;SDS011;37364;46.974;18.916;2022-08-19T11:54:24;15.68;;;4.22;;
51286;SDS011;37364;46.974;18.916;2022-08-19T11:56:55;20.67;;;4.72;;
51286;SDS011;37364;46.974;18.916;2022-08-19T11:59:28;18.85;;;4.85;;
51286;SDS011;37364;46.974;18.916;2022-08-19T12:02:01;25.20;;;5.63;;
51286;SDS011;37364;46.974;18.916;2022-08-19T12:04:33;19.95;;;4.72;;
51286;SDS011;37364;46.974;18.916;2022-08-19T12:07:04;31.27;;;4.45;;
51286;SDS011;37364;46.974;18.916;2022-08-19T12:09:34;25.85;;;4.88;;
51286;SDS011;37364;46.974;18.916;2022-08-19T12:12:09;22.98;;;4.20;;
51286;SDS011;37364;46.974;18.916;2022-08-19T12:14:40;25.10;;;6.67;;
51286;SDS011;37364;46.974;18.916;2022-08-19T12:17:15;26.60;;;4.80;;
51286;SDS011;37364;46.974;18.916;2022-08-19T12:19:48;35.58;;;6.40;;
51286;SDS011;37364;46.974;18.916;2022-08-19T12:22:22;24.45;;;5.45;;
51286;SDS011;37364;46.974;18.916;2022-08-19T12:24:52;24.63;;;4.95;;
51286;SDS011;37364;46.974;18.916;2022-08-19T12:27:23;17.90;;;5.70;;
51286;SDS011;37364;46.974;18.916;2022-08-19T12:30:11;34.28;;;5.25;;
51286;SDS011;37364;46.974;18.916;2022-08-19T12:32:46;25.77;;;4.95;;
51286;SDS011;37364;46.974;18.916;2022-08-19T12:35:18;22.75;;;4.63;;
51286;SDS011;37364;46.974;18.916;2022-08-19T12:37:51;121.85;;;8.32;;
51286;SDS011;37364;46.974;18.916;2022-08-19T12:40:25;57.78;;;7.20;;
51286;SDS011;37364;46.974;18.916;2022-08-19T12:42:58;59.92;;;6.80;;
51286;SDS011;37364;46.974;18.916;2022-08-19T12:45:33;54.83;;;6.85;;
51286;SDS011;37364;46.974;18.916;2022-08-19T12:48:09;82.30;;;7.03;;
51286;SDS011;37364;46.974;18.916;2022-08-19T12:53:29;71.50;;;6.97;;
51286;SDS011;37364;46.974;18.916;2022-08-19T12:56:04;66.47;;;6.90;;
51286;SDS011;37364;46.974;18.916;2022-08-19T12:58:38;46.60;;;7.47;;
51286;SDS011;37364;46.974;18.916;2022-08-19T13:01:18;32.72;;;7.35;;
51286;SDS011;37364;46.974;18.916;2022-08-19T13:03:54;53.95;;;6.40;;
51286;SDS011;37364;46.974;18.916;2022-08-19T13:06:27;47.55;;;6.97;;
51286;SDS011;37364;46.974;18.916;2022-08-19T13:08:57;74.13;;;7.22;;
51286;SDS011;37364;46.974;18.916;2022-08-19T13:11:28;47.33;;;5.82;;
51286;SDS011;37364;46.974;18.916;2022-08-19T13:14:01;64.03;;;7.50;;
51286;SDS011;37364;46.974;18.916;2022-08-19T13:16:35;50.50;;;7.30;;
51286;SDS011;37364;46.974;18.916;2022-08-19T13:19:11;55.17;;;6.55;;
51286;SDS011;37364;46.974;18.916;2022-08-19T13:21:42;58.17;;;7.82;;
51286;SDS011;37364;46.974;18.916;2022-08-19T13:24:14;33.15;;;6.20;;
51286;SDS011;37364;46.974;18.916;2022-08-19T13:26:59;51.67;;;6.93;;
51286;SDS011;37364;46.974;18.916;2022-08-19T13:29:31;42.20;;;5.47;;
51286;SDS011;37364;46.974;18.916;2022-08-19T13:32:14;64.60;;;7.45;;
51286;SDS011;37364;46.974;18.916;2022-08-19T13:35:00;49.40;;;6.20;;
51286;SDS011;37364;46.974;18.916;2022-08-19T13:37:31;71.53;;;7.35;;
51286;SDS011;37364;46.974;18.916;2022-08-19T13:40:12;42.92;;;5.82;;
51286;SDS011;37364;46.974;18.916;2022-08-19T13:42:48;33.35;;;4.85;;
51286;SDS011;37364;46.974;18.916;2022-08-19T13:45:24;36.08;;;5.50;;
51286;SDS011;37364;46.974;18.916;2022-08-19T13:47:56;46.17;;;6.07;;
51286;SDS011;37364;46.974;18.916;2022-08-19T13:50:32;31.05;;;5.50;;
51286;SDS011;37364;46.974;18.916;2022-08-19T13:53:04;27.08;;;4.55;;
51286;SDS011;37364;46.974;18.916;2022-08-19T13:55:35;34.17;;;5.10;;
51286;SDS011;37364;46.974;18.916;2022-08-19T13:58:07;35.60;;;4.80;;
51286;SDS011;37364;46.974;18.916;2022-08-19T14:00:41;40.40;;;4.72;;
51286;SDS011;37364;46.974;18.916;2022-08-19T14:03:17;29.55;;;5.40;;
51286;SDS011;37364;46.974;18.916;2022-08-19T14:05:54;46.10;;;6.28;;
51286;SDS011;37364;46.974;18.916;2022-08-19T14:08:38;48.20;;;5.97;;
51286;SDS011;37364;46.974;18.916;2022-08-19T14:11:11;41.58;;;6.05;;
51286;SDS011;37364;46.974;18.916;2022-08-19T14:13:42;27.80;;;5.43;;
51286;SDS011;37364;46.974;18.916;2022-08-19T14:16:13;30.08;;;5.47;;
51286;SDS011;37364;46.974;18.916;2022-08-19T14:18:44;36.63;;;5.30;;
51286;SDS011;37364;46.974;18.916;2022-08-19T14:21:19;27.17;;;5.32;;
51286;SDS011;37364;46.974;18.916;2022-08-19T14:23:54;45.13;;;6.05;;
51286;SDS011;37364;46.974;18.916;2022-08-19T14:26:25;39.67;;;4.77;;
51286;SDS011;37364;46.974;18.916;2022-08-19T14:28:59;33.03;;;5.68;;
51286;SDS011;37364;46.974;18.916;2022-08-19T14:31:30;25.25;;;5.35;;
51286;SDS011;37364;46.974;18.916;2022-08-19T14:34:01;37.25;;;5.85;;
51286;SDS011;37364;46.974;18.916;2022-08-19T14:36:42;40.45;;;6.18;;
51286;SDS011;37364;46.974;18.916;2022-08-19T14:39:15;30.58;;;6.28;;
51286;SDS011;37364;46.974;18.916;2022-08-19T14:41:45;43.55;;;6.32;;
51286;SDS011;37364;46.974;18.916;2022-08-19T14:44:16;38.50;;;6.55;;
51286;SDS011;37364;46.974;18.916;2022-08-19T14:46:47;48.25;;;6.00;;
51286;SDS011;37364;46.974;18.916;2022-08-19T14:49:20;49.35;;;6.35;;
51286;SDS011;37364;46.974;18.916;2022-08-19T14:52:11;20.48;;;4.72;;
51286;SDS011;37364;46.974;18.916;2022-08-19T14:54:42;33.08;;;5.72;;
51286;SDS011;37364;46.974;18.916;2022-08-19T14:57:16;31.05;;;5.88;;
51286;SDS011;37364;46.974;18.916;2022-08-19T14:59:46;28.45;;;5.85;;
51286;SDS011;37364;46.974;18.916;2022-08-19T15:02:16;35.20;;;5.18;;
51286;SDS011;37364;46.974;18.916;2022-08-19T15:05:00;32.67;;;6.05;;
51286;SDS011;37364;46.974;18.916;2022-08-19T15:07:33;41.85;;;6.63;;
51286;SDS011;37364;46.974;18.916;2022-08-19T15:10:05;34.63;;;5.97;;
51286;SDS011;37364;46.974;18.916;2022-08-19T15:12:45;37.00;;;6.18;;
51286;SDS011;37364;46.974;18.916;2022-08-19T15:15:17;32.63;;;6.15;;
51286;SDS011;37364;46.974;18.916;2022-08-19T15:17:56;39.13;;;6.25;;
51286;SDS011;37364;46.974;18.916;2022-08-19T15:20:30;35.90;;;6.30;;
51286;SDS011;37364;46.974;18.916;2022-08-19T15:23:03;47.92;;;7.75;;
51286;SDS011;37364;46.974;18.916;2022-08-19T15:25:37;38.03;;;7.57;;
51286;SDS011;37364;46.974;18.916;2022-08-19T15:28:08;38.45;;;7.07;;
51286;SDS011;37364;46.974;18.916;2022-08-19T15:30:40;39.40;;;6.90;;